Time;durP1;ratioP1;P1;durP2;ratioP2;P2;SDS_P1;SDS_P2;PMS_P1;PMS_P2;Temp;Humidity;BMP_temperature;BMP_pressure;BME280_temperature;BME280_humidity;BME280_pressure;Samples;Min_cycle;Max_cycle;Signal;HPM_P1;HPM_P2
2021/11/29 00:00:21;;;;;;;9.93;9.23;;;4.20;68.40;;;;;;4994167;28;20045;-89
2021/11/29 00:02:51;;;;;;;9.30;8.90;;;4.30;68.40;;;;;;5012543;28;20029;-87
2021/11/29 00:05:18;;;;;;;10.70;10.00;;;4.30;68.40;;;;;;5013320;28;20029;-88
2021/11/29 00:07:44;;;;;;;10.33;9.63;;;4.30;68.40;;;;;;4997072;28;20363;-89
2021/11/29 00:10:10;;;;;;;14.23;11.67;;;4.30;68.40;;;;;;5011060;28;20040;-88
2021/11/29 00:12:36;;;;;;;10.93;10.33;;;4.30;68.50;;;;;;4980827;28;20041;-88
2021/11/29 00:15:04;;;;;;;9.93;9.43;;;4.30;68.50;;;;;;5011536;28;20040;-84
2021/11/29 00:17:30;;;;;;;10.17;9.67;;;4.30;68.40;;;;;;5015040;28;20410;-88
2021/11/29 00:19:56;;;;;;;11.20;10.43;;;4.30;68.40;;;;;;5015982;28;20033;-88
2021/11/29 00:22:22;;;;;;;11.00;10.40;;;4.40;68.50;;;;;;5001055;28;20410;-88
2021/11/29 00:24:48;;;;;;;9.23;8.83;;;4.40;68.50;;;;;;5033728;28;20029;-88
2021/11/29 00:27:14;;;;;;;9.20;8.70;;;4.40;68.40;;;;;;5016428;28;20037;-88
2021/11/29 00:29:43;;;;;;;10.50;9.80;;;4.40;68.50;;;;;;5033785;28;20029;-88
2021/11/29 00:32:09;;;;;;;10.63;9.67;;;4.50;68.50;;;;;;5032963;28;20046;-88
2021/11/29 00:34:35;;;;;;;9.47;9.07;;;4.50;68.60;;;;;;4999911;28;20044;-88
2021/11/29 00:37:01;;;;;;;9.53;9.03;;;4.50;68.60;;;;;;5033701;28;20049;-89
2021/11/29 00:39:27;;;;;;;9.43;9.00;;;4.50;68.60;;;;;;5016021;28;20372;-88
2021/11/29 00:41:53;;;;;;;10.17;9.67;;;4.50;68.60;;;;;;5032063;28;20034;-88
2021/11/29 00:44:19;;;;;;;11.17;10.57;;;4.50;68.60;;;;;;5000046;28;20498;-88
2021/11/29 00:46:45;;;;;;;10.00;9.50;;;4.50;68.50;;;;;;5031840;28;20041;-88
2021/11/29 00:49:11;;;;;;;9.43;8.93;;;4.60;68.60;;;;;;4999527;28;20038;-88
2021/11/29 00:51:38;;;;;;;9.60;9.13;;;4.60;68.60;;;;;;5033699;28;20040;-88
2021/11/29 00:54:04;;;;;;;10.50;10.00;;;4.60;68.60;;;;;;5033698;28;20406;-88
2021/11/29 00:56:30;;;;;;;9.30;8.90;;;4.60;68.60;;;;;;5030014;28;20044;-89
2021/11/29 00:58:57;;;;;;;9.67;9.17;;;4.70;68.60;;;;;;4999310;28;20037;-88
2021/11/29 01:01:23;;;;;;;15.07;10.03;;;4.70;68.60;;;;;;5013983;28;20261;-88
2021/11/29 01:03:49;;;;;;;9.80;9.20;;;4.70;68.60;;;;;;4999459;28;20044;-88
2021/11/29 01:06:15;;;;;;;12.33;11.07;;;4.70;68.60;;;;;;5016081;28;20044;-88
2021/11/29 01:08:41;;;;;;;10.33;9.83;;;4.70;68.60;;;;;;4982981;28;20034;-88
2021/11/29 01:11:07;;;;;;;9.37;8.97;;;4.70;68.60;;;;;;5033342;28;20025;-88
2021/11/29 01:13:34;;;;;;;9.00;8.60;;;4.70;68.70;;;;;;5033024;28;20037;-88
2021/11/29 01:16:00;;;;;;;8.70;8.30;;;4.80;68.80;;;;;;4999535;28;20033;-88
2021/11/29 01:18:26;;;;;;;8.90;8.50;;;4.80;68.80;;;;;;5014954;28;20052;-87
2021/11/29 01:20:52;;;;;;;9.53;8.93;;;4.80;68.70;;;;;;5033143;28;20405;-88
2021/11/29 01:23:19;;;;;;;9.03;8.63;;;4.80;68.80;;;;;;4982030;28;20037;-88
2021/11/29 01:25:45;;;;;;;8.97;8.57;;;4.90;68.80;;;;;;5032790;28;20037;-88
2021/11/29 01:28:11;;;;;;;9.33;8.83;;;4.90;68.80;;;;;;4999057;28;20037;-88
2021/11/29 01:30:37;;;;;;;10.17;9.57;;;4.90;69.60;;;;;;5015423;28;20048;-88
2021/11/29 01:33:04;;;;;;;9.33;8.83;;;4.90;68.80;;;;;;5014346;28;20029;-88
2021/11/29 01:35:30;;;;;;;9.00;8.60;;;5.00;68.90;;;;;;5015617;28;20034;-88
2021/11/29 01:37:56;;;;;;;7.87;7.47;;;5.00;68.90;;;;;;5015012;28;20042;-88
2021/11/29 01:40:23;;;;;;;9.13;8.73;;;5.00;69.30;;;;;;5033059;28;20045;-88
2021/11/29 01:43:05;;;;;;;8.90;8.50;;;5.00;68.90;;;;;;4999036;28;20044;-88
2021/11/29 01:45:35;;;;;;;8.73;8.33;;;5.10;69.00;;;;;;4996264;28;20037;-88
2021/11/29 01:48:02;;;;;;;9.60;9.10;;;5.10;69.00;;;;;;4978995;28;20037;-90
2021/11/29 01:50:28;;;;;;;8.87;8.47;;;5.10;69.00;;;;;;4996985;28;20040;-89
2021/11/29 01:52:54;;;;;;;9.97;9.47;;;5.10;69.00;;;;;;4999181;28;20029;-88
2021/11/29 01:55:21;;;;;;;9.57;9.07;;;5.10;69.10;;;;;;4998070;28;20045;-89
2021/11/29 01:57:47;;;;;;;8.87;8.40;;;5.10;69.10;;;;;;5014122;28;20037;-89
2021/11/29 02:00:16;;;;;;;8.10;7.70;;;5.20;69.30;;;;;;4981965;28;20390;-88
2021/11/29 02:02:42;;;;;;;7.40;7.10;;;5.30;69.10;;;;;;4997993;28;20432;-89
2021/11/29 02:05:08;;;;;;;8.30;7.80;;;5.30;69.00;;;;;;4998279;28;20390;-92
2021/11/29 02:07:35;;;;;;;8.33;7.83;;;5.40;69.00;;;;;;5032309;28;20038;-90
2021/11/29 02:10:01;;;;;;;8.20;7.70;;;5.40;69.00;;;;;;5015207;28;20032;-88
2021/11/29 02:12:27;;;;;;;22.10;7.73;;;5.40;69.00;;;;;;4998320;28;20029;-89
2021/11/29 02:14:53;;;;;;;8.90;8.40;;;5.40;69.20;;;;;;5013525;28;20030;-88
2021/11/29 02:17:19;;;;;;;9.90;9.30;;;5.40;69.30;;;;;;5031192;28;20049;-88
2021/11/29 02:19:46;;;;;;;9.00;8.60;;;5.40;69.40;;;;;;5014393;28;20021;-88
2021/11/29 02:22:12;;;;;;;9.87;9.37;;;5.30;69.50;;;;;;4999257;28;20033;-87
2021/11/29 02:24:39;;;;;;;9.43;9.00;;;5.30;69.60;;;;;;5013876;28;20482;-87
2021/11/29 02:27:05;;;;;;;9.40;8.90;;;5.20;69.80;;;;;;4998223;28;20032;-87
2021/11/29 02:29:32;;;;;;;9.23;8.83;;;5.20;69.90;;;;;;5013894;28;20414;-87
2021/11/29 02:31:58;;;;;;;8.10;7.70;;;5.10;70.00;;;;;;4997123;28;20033;-87
2021/11/29 02:34:26;;;;;;;9.50;8.80;;;5.10;70.00;;;;;;4997150;28;20049;-88
2021/11/29 02:36:53;;;;;;;9.00;8.60;;;5.10;70.10;;;;;;5032626;28;20060;-87
2021/11/29 02:39:20;;;;;;;8.80;8.40;;;5.10;70.00;;;;;;4997827;28;20041;-88
2021/11/29 02:41:47;;;;;;;8.50;8.10;;;5.10;70.00;;;;;;5013241;28;20386;-88
2021/11/29 02:44:13;;;;;;;8.37;7.97;;;5.20;70.10;;;;;;5030545;28;20040;-88
2021/11/29 02:46:39;;;;;;;9.20;8.77;;;5.10;70.10;;;;;;5013707;28;20052;-87
2021/11/29 02:49:06;;;;;;;8.40;7.90;;;5.10;70.10;;;;;;5013917;28;20049;-87
2021/11/29 02:51:35;;;;;;;8.47;8.00;;;5.10;70.10;;;;;;5012549;28;20060;-88
2021/11/29 02:54:17;;;;;;;9.33;8.83;;;5.10;70.20;;;;;;5030960;28;20028;-86
2021/11/29 02:56:45;;;;;;;8.93;8.53;;;5.10;70.20;;;;;;4998188;28;20120;-85
2021/11/29 02:59:23;;;;;;;8.00;7.60;;;5.10;70.20;;;;;;4977544;28;20505;-86
2021/11/29 03:01:51;;;;;;;9.30;8.90;;;5.10;70.40;;;;;;4990904;28;20038;-86
2021/11/29 03:04:19;;;;;;;9.23;8.70;;;5.00;70.70;;;;;;5002976;28;22288;-86
2021/11/29 03:06:45;;;;;;;10.43;8.57;;;5.00;70.90;;;;;;4986256;28;20038;-86
2021/11/29 03:09:11;;;;;;;9.77;9.27;;;4.90;70.90;;;;;;5025202;28;20505;-86
2021/11/29 03:11:37;;;;;;;8.90;8.43;;;4.90;71.00;;;;;;5011099;28;20048;-86
2021/11/29 03:14:03;;;;;;;8.83;8.43;;;4.90;71.10;;;;;;4993725;28;20041;-85
2021/11/29 03:16:30;;;;;;;8.70;8.30;;;4.90;71.30;;;;;;5027831;28;20209;-86
2021/11/29 03:18:56;;;;;;;10.70;9.70;;;4.80;71.60;;;;;;5025887;28;20402;-85
2021/11/29 03:21:22;;;;;;;8.67;8.27;;;4.80;71.90;;;;;;5010813;28;20493;-85
2021/11/29 03:23:50;;;;;;;9.47;9.07;;;4.70;72.20;;;;;;5011581;28;20037;-85
2021/11/29 03:26:18;;;;;;;9.40;8.90;;;4.70;72.40;;;;;;5027700;28;20034;-86
2021/11/29 03:28:49;;;;;;;9.20;8.60;;;4.70;72.50;;;;;;5009600;28;20021;-86
2021/11/29 03:31:15;;;;;;;9.05;8.65;;;4.70;72.40;;;;;;5025028;28;20056;-86
2021/11/29 03:33:42;;;;;;;8.60;8.20;;;4.70;72.50;;;;;;5027242;28;20029;-86
2021/11/29 03:36:08;;;;;;;9.57;9.07;;;4.70;72.40;;;;;;4995117;28;20034;-86
2021/11/29 03:38:35;;;;;;;9.53;9.13;;;4.80;72.50;;;;;;5013289;28;20490;-86
2021/11/29 03:41:01;;;;;;;9.87;9.37;;;4.80;72.40;;;;;;5031140;28;20359;-87
2021/11/29 03:43:27;;;;;;;10.47;9.70;;;4.80;72.20;;;;;;5012993;28;20049;-87
2021/11/29 03:45:53;;;;;;;10.60;10.07;;;4.80;72.20;;;;;;5013112;28;20029;-87
2021/11/29 03:48:19;;;;;;;10.53;9.77;;;4.90;72.20;;;;;;5012373;28;20033;-86
2021/11/29 03:50:45;;;;;;;11.47;9.60;;;4.90;72.10;;;;;;5030534;28;20040;-86
2021/11/29 03:53:12;;;;;;;9.90;9.30;;;4.90;72.00;;;;;;5034266;28;20390;-86
2021/11/29 03:55:38;;;;;;;8.70;8.30;;;5.00;72.00;;;;;;5034984;28;20041;-86
2021/11/29 03:58:04;;;;;;;8.10;7.70;;;5.00;71.90;;;;;;5018204;28;20045;-86
2021/11/29 04:00:30;;;;;;;8.53;8.13;;;5.00;71.90;;;;;;5014787;28;20479;-86
2021/11/29 04:02:56;;;;;;;8.20;7.80;;;5.10;71.80;;;;;;5033851;28;20092;-85
2021/11/29 04:05:22;;;;;;;8.13;7.73;;;5.10;71.80;;;;;;4990495;28;20045;-86
2021/11/29 04:07:49;;;;;;;8.13;7.73;;;5.10;71.80;;;;;;5017325;28;20026;-85
2021/11/29 04:10:16;;;;;;;8.17;7.67;;;5.20;71.80;;;;;;5034426;28;20479;-85
2021/11/29 04:12:42;;;;;;;7.93;7.53;;;5.20;71.80;;;;;;5017193;28;20041;-85
2021/11/29 04:15:08;;;;;;;8.13;7.73;;;5.20;71.80;;;;;;5000007;28;20034;-85
2021/11/29 04:17:35;;;;;;;8.17;7.77;;;5.20;71.70;;;;;;5015988;28;20048;-86
2021/11/29 04:20:02;;;;;;;7.97;7.57;;;5.30;71.70;;;;;;5033173;28;20478;-85
2021/11/29 04:22:28;;;;;;;7.60;7.10;;;5.30;71.70;;;;;;5017325;28;20414;-86
2021/11/29 04:24:58;;;;;;;7.70;7.33;;;5.30;71.70;;;;;;5017322;28;20418;-86
2021/11/29 04:27:24;;;;;;;7.70;7.30;;;5.40;71.70;;;;;;5016515;28;20483;-86
2021/11/29 04:29:50;;;;;;;7.50;7.10;;;5.40;71.70;;;;;;5015921;28;20033;-86
2021/11/29 04:32:16;;;;;;;8.13;7.73;;;5.40;71.70;;;;;;5034296;28;20040;-86
2021/11/29 04:34:42;;;;;;;8.23;7.73;;;5.40;71.70;;;;;;4999377;28;20021;-86
2021/11/29 04:37:08;;;;;;;6.83;6.53;;;5.40;71.70;;;;;;5017370;28;20409;-86
2021/11/29 04:39:35;;;;;;;7.70;7.30;;;5.50;71.80;;;;;;5033649;28;20033;-85
2021/11/29 04:42:01;;;;;;;7.53;7.23;;;5.40;71.70;;;;;;4999695;28;20410;-86
2021/11/29 04:44:28;;;;;;;8.80;8.30;;;5.40;71.70;;;;;;5034204;28;20029;-86
2021/11/29 04:46:54;;;;;;;7.53;7.17;;;5.40;71.80;;;;;;5016025;28;20037;-86
2021/11/29 04:49:21;;;;;;;7.50;7.10;;;5.40;71.90;;;;;;5015431;28;20045;-86
2021/11/29 04:51:47;;;;;;;8.43;8.00;;;5.40;71.90;;;;;;5015181;28;20025;-86
2021/11/29 04:54:13;;;;;;;7.60;7.10;;;5.40;72.00;;;;;;5016129;28;20025;-86
2021/11/29 04:56:39;;;;;;;8.20;7.80;;;5.40;72.00;;;;;;5016507;28;20045;-86
2021/11/29 04:59:05;;;;;;;7.77;7.40;;;5.40;72.00;;;;;;5016456;28;20049;-86
2021/11/29 05:01:32;;;;;;;8.03;7.63;;;5.40;72.10;;;;;;5015619;28;20045;-85
2021/11/29 05:03:58;;;;;;;7.70;7.37;;;5.40;72.20;;;;;;5014444;28;20037;-86
2021/11/29 05:06:24;;;;;;;7.73;7.33;;;5.30;72.20;;;;;;5016389;28;20036;-85
2021/11/29 05:08:50;;;;;;;10.67;8.80;;;5.40;72.20;;;;;;5033248;28;20033;-86
2021/11/29 05:11:17;;;;;;;7.97;7.57;;;5.40;73.10;;;;;;5033364;28;20025;-86
2021/11/29 05:13:43;;;;;;;7.90;7.50;;;5.40;72.30;;;;;;4989827;28;20033;-86
2021/11/29 05:16:09;;;;;;;7.77;7.37;;;5.30;72.20;;;;;;4999394;28;20044;-86
2021/11/29 05:18:36;;;;;;;8.03;7.63;;;5.30;72.30;;;;;;5014264;28;20050;-85
2021/11/29 05:21:02;;;;;;;7.13;6.83;;;5.30;72.40;;;;;;5015400;28;20021;-88
2021/11/29 05:23:28;;;;;;;8.97;8.33;;;5.30;72.40;;;;;;5014697;28;20513;-86
2021/11/29 05:25:54;;;;;;;7.60;7.30;;;5.30;72.50;;;;;;5009050;28;20053;-88
2021/11/29 05:28:20;;;;;;;7.50;7.20;;;5.30;72.60;;;;;;5028453;28;20486;-88
2021/11/29 05:30:46;;;;;;;8.00;7.60;;;5.30;72.60;;;;;;5031106;28;20038;-89
2021/11/29 05:33:12;;;;;;;8.07;7.67;;;5.30;72.70;;;;;;5028255;28;20028;-89
2021/11/29 05:35:38;;;;;;;8.03;7.63;;;5.30;72.60;;;;;;5012064;28;20033;-88
2021/11/29 05:38:04;;;;;;;8.40;7.90;;;5.30;72.70;;;;;;5011854;28;20038;-89
2021/11/29 05:40:31;;;;;;;8.33;7.83;;;5.30;72.60;;;;;;5011110;28;20029;-87
2021/11/29 05:42:57;;;;;;;7.77;7.37;;;5.30;73.40;;;;;;5033147;28;20022;-85
2021/11/29 05:45:23;;;;;;;8.40;7.90;;;5.30;72.60;;;;;;4979786;28;20045;-84
2021/11/29 05:47:49;;;;;;;7.40;7.07;;;5.40;72.60;;;;;;4994801;28;20037;-85
2021/11/29 05:50:16;;;;;;;8.23;7.83;;;5.40;72.60;;;;;;5029346;28;20467;-85
2021/11/29 05:52:42;;;;;;;8.10;7.63;;;5.40;72.70;;;;;;5031447;28;20030;-86
2021/11/29 05:55:09;;;;;;;19.47;8.77;;;5.30;72.80;;;;;;4996718;28;20428;-84
2021/11/29 05:57:35;;;;;;;9.07;8.47;;;5.30;72.90;;;;;;5014509;28;20037;-90
2021/11/29 06:00:01;;;;;;;8.17;7.77;;;5.20;72.90;;;;;;5011875;28;20057;-87
2021/11/29 06:02:27;;;;;;;7.93;7.53;;;5.20;73.00;;;;;;5010654;28;20037;-91
2021/11/29 06:04:53;;;;;;;7.60;7.30;;;5.20;73.10;;;;;;4996546;28;20102;-84
2021/11/29 06:07:19;;;;;;;7.77;7.37;;;5.20;73.00;;;;;;5032832;28;20029;-85
2021/11/29 06:09:45;;;;;;;7.63;7.33;;;5.20;73.00;;;;;;4983491;28;20037;-88
2021/11/29 06:12:11;;;;;;;8.00;7.60;;;5.20;73.00;;;;;;5014160;28;20033;-89
2021/11/29 06:14:37;;;;;;;7.87;7.47;;;5.30;73.00;;;;;;5017169;28;20029;-89
2021/11/29 06:17:04;;;;;;;8.23;7.73;;;5.30;73.00;;;;;;5000935;28;20045;-90
2021/11/29 06:19:30;;;;;;;7.77;7.37;;;5.30;73.00;;;;;;5020711;28;20033;-92
2021/11/29 06:21:56;;;;;;;7.67;7.30;;;5.30;72.90;;;;;;5032634;28;20030;-88
2021/11/29 06:24:22;;;;;;;7.73;7.33;;;5.40;72.90;;;;;;4997972;28;20040;-89
2021/11/29 06:26:48;;;;;;;8.70;8.00;;;5.40;72.90;;;;;;5015385;28;20025;-88
2021/11/29 06:29:14;;;;;;;7.60;7.20;;;5.40;72.90;;;;;;4997449;28;20050;-89
2021/11/29 06:31:41;;;;;;;7.57;7.27;;;5.40;72.90;;;;;;5012809;28;20521;-87
2021/11/29 06:34:07;;;;;;;10.23;8.87;;;5.40;73.00;;;;;;5014681;28;20041;-87
2021/11/29 06:36:33;;;;;;;9.20;8.70;;;5.30;73.00;;;;;;5010917;28;20048;-88
2021/11/29 06:39:00;;;;;;;8.87;8.37;;;5.40;73.10;;;;;;4997080;28;20049;-88
2021/11/29 06:41:26;;;;;;;10.23;9.10;;;5.40;73.10;;;;;;5021726;28;20046;-88
2021/11/29 06:43:52;;;;;;;9.40;8.27;;;5.40;73.10;;;;;;4994772;28;20030;-87
2021/11/29 06:46:18;;;;;;;9.90;9.20;;;5.40;73.10;;;;;;4997032;28;20056;-87
2021/11/29 06:48:44;;;;;;;8.30;7.90;;;5.40;73.20;;;;;;4997468;28;20033;-88
2021/11/29 06:51:11;;;;;;;8.53;8.13;;;5.40;73.10;;;;;;5026982;28;20042;-88
2021/11/29 06:53:37;;;;;;;8.73;8.23;;;5.40;73.10;;;;;;4995533;28;20033;-88
2021/11/29 06:56:03;;;;;;;8.13;7.73;;;5.40;73.10;;;;;;5011268;28;20030;-87
2021/11/29 06:58:30;;;;;;;8.47;8.03;;;5.40;73.20;;;;;;5012667;28;20042;-87
2021/11/29 07:00:56;;;;;;;8.37;7.87;;;5.40;74.00;;;;;;4998054;28;20034;-88
2021/11/29 07:03:22;;;;;;;8.03;7.63;;;5.30;73.20;;;;;;5012533;28;20048;-88
2021/11/29 07:05:50;;;;;;;8.63;8.23;;;5.30;73.30;;;;;;5010297;28;20037;-86
2021/11/29 07:08:19;;;;;;;8.17;7.70;;;5.30;73.30;;;;;;5012652;28;20022;-85
2021/11/29 07:10:47;;;;;;;8.97;8.37;;;5.30;73.40;;;;;;5010767;28;20391;-90
2021/11/29 07:13:14;;;;;;;8.00;7.60;;;5.40;73.60;;;;;;5013458;28;20375;-88
2021/11/29 07:15:40;;;;;;;8.13;7.73;;;5.40;73.40;;;;;;4980326;28;20042;-89
2021/11/29 07:18:06;;;;;;;8.13;7.63;;;5.50;73.30;;;;;;5011639;28;20052;-86
2021/11/29 07:20:32;;;;;;;7.50;7.20;;;5.40;73.30;;;;;;5011864;28;20029;-88
2021/11/29 07:22:59;;;;;;;9.53;8.93;;;5.40;73.30;;;;;;5027996;28;20033;-89
2021/11/29 07:25:25;;;;;;;9.73;9.17;;;5.30;73.40;;;;;;5012030;28;20047;-88
2021/11/29 07:27:51;;;;;;;8.40;8.00;;;5.30;73.50;;;;;;4997258;28;20045;-87
2021/11/29 07:30:19;;;;;;;7.77;7.37;;;5.20;73.60;;;;;;4997460;28;20036;-88
2021/11/29 07:32:45;;;;;;;9.17;8.03;;;5.20;73.80;;;;;;5031637;28;20034;-89
2021/11/29 07:35:11;;;;;;;8.77;8.33;;;5.20;73.80;;;;;;5014124;28;20030;-88
2021/11/29 07:37:37;;;;;;;8.57;8.03;;;5.20;73.90;;;;;;4996798;28;20374;-87
2021/11/29 07:40:04;;;;;;;8.20;7.80;;;5.10;73.80;;;;;;4981478;28;20453;-87
2021/11/29 07:42:31;;;;;;;8.07;7.63;;;5.10;73.80;;;;;;5013168;28;20047;-88
2021/11/29 07:44:57;;;;;;;8.50;8.10;;;5.10;73.90;;;;;;5013824;28;20041;-89
2021/11/29 07:47:24;;;;;;;7.63;7.23;;;5.10;73.80;;;;;;5030843;28;20038;-87
2021/11/29 07:49:50;;;;;;;8.07;7.67;;;5.10;73.90;;;;;;5013957;28;20036;-88
2021/11/29 07:52:16;;;;;;;7.57;7.27;;;5.10;74.00;;;;;;5031720;28;20033;-88
2021/11/29 07:54:42;;;;;;;13.13;7.27;;;5.00;73.90;;;;;;5014154;28;20033;-88
2021/11/29 07:57:10;;;;;;;8.57;8.17;;;5.00;73.90;;;;;;5030914;28;20410;-88
2021/11/29 07:59:37;;;;;;;7.90;7.50;;;5.00;74.00;;;;;;4996484;28;20045;-88
2021/11/29 08:02:03;;;;;;;7.50;7.17;;;5.00;74.00;;;;;;5012509;28;20041;-87
2021/11/29 08:04:29;;;;;;;7.63;7.23;;;4.90;74.00;;;;;;5013662;28;20033;-88
2021/11/29 08:06:55;;;;;;;8.90;8.40;;;4.90;74.10;;;;;;5031818;28;20044;-87
2021/11/29 08:09:21;;;;;;;9.73;9.13;;;4.90;74.10;;;;;;4997382;28;20048;-88
2021/11/29 08:11:47;;;;;;;7.97;7.57;;;4.90;74.10;;;;;;5013124;28;20036;-86
2021/11/29 08:14:13;;;;;;;8.57;8.13;;;4.90;74.20;;;;;;4993411;28;20419;-88
2021/11/29 08:16:40;;;;;;;7.93;7.53;;;4.90;74.10;;;;;;5030161;28;20034;-88
2021/11/29 08:19:06;;;;;;;9.33;8.63;;;4.90;74.20;;;;;;5006756;28;20038;-88
2021/11/29 08:21:32;;;;;;;8.07;7.67;;;4.90;74.10;;;;;;5012253;28;20033;-87
2021/11/29 08:23:58;;;;;;;9.27;8.67;;;4.90;74.20;;;;;;5012032;28;20402;-87
2021/11/29 08:26:27;;;;;;;8.77;8.30;;;4.90;74.20;;;;;;4986155;28;20046;-88
2021/11/29 08:28:53;;;;;;;9.20;8.80;;;4.90;74.10;;;;;;5031173;28;20036;-88
2021/11/29 08:31:19;;;;;;;8.30;7.83;;;4.90;74.10;;;;;;5009748;28;20475;-88
2021/11/29 08:33:45;;;;;;;6.60;6.30;;;4.90;74.00;;;;;;4995868;28;20036;-88
2021/11/29 08:36:12;;;;;;;8.37;7.97;;;5.00;74.10;;;;;;5029826;28;20483;-85
2021/11/29 08:38:38;;;;;;;9.40;8.83;;;5.00;74.00;;;;;;5014112;28;20042;-85
2021/11/29 08:41:04;;;;;;;7.37;6.97;;;5.00;74.00;;;;;;5014832;28;20041;-86
2021/11/29 08:43:31;;;;;;;7.90;7.50;;;5.00;74.00;;;;;;5000513;28;20056;-82
2021/11/29 08:45:57;;;;;;;7.63;7.30;;;5.10;74.00;;;;;;5032024;28;20049;-83
2021/11/29 08:48:24;;;;;;;7.83;7.43;;;5.10;74.00;;;;;;5000460;28;20029;-82
2021/11/29 08:50:52;;;;;;;8.10;7.70;;;5.20;73.90;;;;;;5014463;28;20584;-83
2021/11/29 08:53:20;;;;;;;7.63;7.23;;;5.20;73.90;;;;;;4990008;28;20029;-86
2021/11/29 08:55:47;;;;;;;7.27;6.97;;;5.20;73.80;;;;;;4996868;28;20038;-85
2021/11/29 08:58:13;;;;;;;7.83;7.43;;;5.20;73.80;;;;;;5015601;28;20037;-88
2021/11/29 09:00:41;;;;;;;8.30;7.90;;;5.30;73.90;;;;;;4996255;28;20052;-85
2021/11/29 09:03:08;;;;;;;7.87;7.47;;;5.40;74.60;;;;;;4997477;28;20466;-87
2021/11/29 09:05:35;;;;;;;8.37;7.87;;;5.40;73.80;;;;;;5015745;28;20045;-85
2021/11/29 09:08:01;;;;;;;7.73;7.33;;;5.40;73.80;;;;;;5015070;28;20029;-80
2021/11/29 09:10:27;;;;;;;9.23;8.67;;;5.50;73.80;;;;;;5027528;28;20413;-81
2021/11/29 09:12:53;;;;;;;8.47;7.97;;;5.50;73.70;;;;;;5033834;28;20033;-82
2021/11/29 09:15:19;;;;;;;7.37;7.07;;;5.50;73.70;;;;;;5012831;28;20072;-80
2021/11/29 09:17:46;;;;;;;7.97;7.37;;;5.50;73.80;;;;;;5012117;28;20466;-83
2021/11/29 09:20:13;;;;;;;7.73;7.33;;;5.60;73.80;;;;;;4996283;28;20054;-83
2021/11/29 09:22:40;;;;;;;8.07;7.67;;;5.60;73.80;;;;;;5011234;28;20383;-82
2021/11/29 09:25:07;;;;;;;7.10;6.80;;;5.60;73.80;;;;;;5015375;28;20105;-85
2021/11/29 09:27:33;;;;;;;7.60;7.20;;;5.70;73.80;;;;;;5011236;28;20026;-86
2021/11/29 09:29:59;;;;;;;8.27;7.87;;;5.70;73.80;;;;;;5009059;28;20026;-85
2021/11/29 09:32:26;;;;;;;7.80;7.40;;;5.80;73.80;;;;;;5008611;28;20045;-86
2021/11/29 09:34:52;;;;;;;8.57;8.10;;;5.80;73.70;;;;;;5015774;28;20038;-88
2021/11/29 09:37:19;;;;;;;8.13;7.73;;;5.80;73.70;;;;;;4999113;28;20072;-83
2021/11/29 09:39:45;;;;;;;8.40;8.00;;;5.90;73.80;;;;;;5013133;28;20052;-82
2021/11/29 09:42:12;;;;;;;8.07;7.67;;;5.90;73.80;;;;;;5014956;28;20386;-84
2021/11/29 09:44:38;;;;;;;8.67;8.27;;;6.00;73.80;;;;;;5015313;28;20032;-83
2021/11/29 09:47:04;;;;;;;9.80;9.30;;;6.00;73.80;;;;;;5032223;28;20037;-84
2021/11/29 09:49:30;;;;;;;9.37;8.97;;;6.10;73.80;;;;;;5030840;28;20493;-80
2021/11/29 09:51:58;;;;;;;9.60;9.20;;;6.40;73.40;;;;;;4999212;28;20037;-81
2021/11/29 09:54:24;;;;;;;8.57;8.17;;;6.70;72.70;;;;;;5013848;28;20028;-80
2021/11/29 09:56:53;;;;;;;9.73;9.33;;;6.90;72.10;;;;;;5015159;28;20497;-79
2021/11/29 09:59:23;;;;;;;10.00;9.50;;;7.10;71.80;;;;;;5031441;28;20040;-81
2021/11/29 10:01:51;;;;;;;9.20;8.80;;;7.30;71.40;;;;;;5014442;28;20041;-80
2021/11/29 10:04:17;;;;;;;8.87;8.47;;;7.30;71.10;;;;;;4998946;28;20052;-84
2021/11/29 10:06:45;;;;;;;10.67;10.17;;;7.30;71.20;;;;;;5012546;28;20522;-89
2021/11/29 10:09:35;;;;;;;9.40;9.00;;;7.20;71.40;;;;;;4996019;28;20022;-87
2021/11/29 10:12:10;;;;;;;17.80;9.75;;;7.30;71.60;;;;;;4997504;28;20034;-81
2021/11/29 10:14:37;;;;;;;8.90;8.47;;;7.30;71.60;;;;;;5030545;28;20026;-82
2021/11/29 10:17:03;;;;;;;10.63;9.60;;;7.30;71.80;;;;;;4996988;28;20033;-85
2021/11/29 10:19:36;;;;;;;9.47;9.03;;;7.20;71.90;;;;;;5013917;28;20041;-83
2021/11/29 10:22:18;;;;;;;8.77;8.37;;;7.10;72.30;;;;;;5028582;28;20395;-86
2021/11/29 10:24:44;;;;;;;9.57;9.00;;;7.10;72.60;;;;;;5011987;28;20037;-85
2021/11/29 10:27:10;;;;;;;10.00;9.50;;;7.20;72.70;;;;;;4995939;28;20037;-85
2021/11/29 10:29:37;;;;;;;9.87;9.37;;;7.10;72.60;;;;;;4995167;28;20029;-86
2021/11/29 10:32:03;;;;;;;9.70;9.20;;;7.20;72.60;;;;;;4997625;28;20034;-84
2021/11/29 10:34:30;;;;;;;10.13;9.63;;;7.30;72.60;;;;;;5014030;28;20030;-89
2021/11/29 10:37:01;;;;;;;9.47;8.97;;;7.40;72.60;;;;;;5013062;28;20037;-83
2021/11/29 10:39:31;;;;;;;9.70;9.10;;;7.60;72.40;;;;;;5010651;28;20396;-91
2021/11/29 10:42:01;;;;;;;9.70;9.00;;;7.70;72.00;;;;;;4981829;28;20773;-84
2021/11/29 10:44:32;;;;;;;10.40;9.88;;;8.00;71.60;;;;;;5011464;28;20033;-85
2021/11/29 10:47:00;;;;;;;9.93;9.48;;;8.10;71.20;;;;;;4981162;28;20034;-86
2021/11/29 10:49:29;;;;;;;10.10;9.60;;;8.20;70.90;;;;;;5021277;28;20222;-87
2021/11/29 10:51:57;;;;;;;9.77;9.17;;;8.30;70.90;;;;;;4997571;28;20025;-86
2021/11/29 10:54:25;;;;;;;9.60;9.20;;;8.30;70.70;;;;;;4995823;28;20494;-83
2021/11/29 10:56:52;;;;;;;10.20;9.70;;;8.30;70.70;;;;;;5013627;28;20494;-84
2021/11/29 10:59:19;;;;;;;10.47;9.87;;;8.20;70.90;;;;;;5031843;28;20048;-84
2021/11/29 11:01:51;;;;;;;9.25;8.85;;;8.10;71.20;;;;;;5024938;28;20029;-88
2021/11/29 11:04:21;;;;;;;9.45;8.95;;;8.00;71.60;;;;;;4995591;28;20047;-83
2021/11/29 11:06:50;;;;;;;9.80;9.27;;;8.00;72.60;;;;;;5012866;28;20038;-87
2021/11/29 11:09:22;;;;;;;10.15;9.65;;;8.10;71.80;;;;;;4997583;28;20029;-85
2021/11/29 11:11:55;;;;;;;9.50;9.10;;;8.10;71.60;;;;;;4990165;28;20048;-85
2021/11/29 11:14:23;;;;;;;9.82;9.32;;;8.20;71.70;;;;;;5014223;28;20029;-85
2021/11/29 11:16:57;;;;;;;10.05;9.55;;;8.20;71.70;;;;;;4979915;28;20032;-85
2021/11/29 11:19:26;;;;;;;10.27;9.77;;;8.20;71.60;;;;;;5000799;28;20041;-84
2021/11/29 11:22:22;;;;;;;10.98;10.48;;;8.20;71.70;;;;;;4996430;28;20025;-88
2021/11/29 11:25:01;;;;;;;9.32;8.85;;;8.20;71.90;;;;;;5012771;28;20021;-88
2021/11/29 11:27:31;;;;;;;9.37;8.97;;;8.20;71.80;;;;;;5031256;28;20037;-85
2021/11/29 11:30:19;;;;;;;9.48;9.07;;;8.40;71.80;;;;;;5008444;28;20508;-83
2021/11/29 11:32:49;;;;;;;9.82;9.32;;;8.60;71.40;;;;;;5028370;28;20048;-83
2021/11/29 11:35:20;;;;;;;10.45;9.90;;;8.80;70.80;;;;;;5028060;28;20028;-83
2021/11/29 11:37:58;;;;;;;10.55;10.05;;;8.80;70.60;;;;;;5018216;28;20033;-85
2021/11/29 11:40:29;;;;;;;11.30;10.80;;;9.00;70.40;;;;;;5009132;28;20045;-85
2021/11/29 11:42:55;;;;;;;11.20;10.60;;;9.00;70.30;;;;;;5013518;28;20044;-84
2021/11/29 11:45:23;;;;;;;10.55;10.05;;;9.00;70.30;;;;;;5029105;28;20037;-83
2021/11/29 11:47:49;;;;;;;11.00;10.40;;;9.10;70.40;;;;;;5027560;28;20022;-84
2021/11/29 11:50:20;;;;;;;10.13;9.63;;;9.10;70.40;;;;;;5011443;28;20511;-83
2021/11/29 11:52:46;;;;;;;11.30;10.77;;;9.10;70.40;;;;;;5024180;28;20030;-83
2021/11/29 11:55:15;;;;;;;11.43;10.93;;;9.20;70.40;;;;;;4992198;28;20052;-82
2021/11/29 11:57:41;;;;;;;10.30;9.80;;;9.30;70.30;;;;;;5013126;28;20029;-82
2021/11/29 12:00:08;;;;;;;10.63;10.10;;;9.40;70.20;;;;;;5010698;28;20053;-83
2021/11/29 12:03:01;;;;;;;9.85;9.35;;;9.50;70.10;;;;;;5010806;28;20032;-84
2021/11/29 12:05:29;;;;;;;9.48;9.07;;;9.50;70.20;;;;;;5025436;28;20041;-84
2021/11/29 12:07:57;;;;;;;10.63;10.13;;;9.50;70.10;;;;;;5012662;28;20029;-85
2021/11/29 12:10:44;;;;;;;10.65;10.15;;;9.40;70.30;;;;;;4995548;28;20038;-86
2021/11/29 12:13:12;;;;;;;10.02;9.52;;;9.40;70.50;;;;;;5031180;28;20030;-84
2021/11/29 12:15:43;;;;;;;10.35;9.85;;;9.30;70.50;;;;;;5015767;28;20037;-85
2021/11/29 12:18:11;;;;;;;11.52;10.93;;;9.30;70.50;;;;;;5014439;28;20030;-83
2021/11/29 12:20:37;;;;;;;10.90;10.40;;;9.40;70.60;;;;;;4999922;28;20505;-83
2021/11/29 12:23:03;;;;;;;11.32;10.82;;;9.50;70.40;;;;;;5033282;28;20036;-83
2021/11/29 12:25:31;;;;;;;11.55;11.02;;;9.60;70.30;;;;;;5016483;28;20048;-85
2021/11/29 12:28:03;;;;;;;11.43;10.93;;;9.70;70.10;;;;;;4989553;28;20045;-85
2021/11/29 12:30:44;;;;;;;11.77;11.27;;;9.80;69.90;;;;;;5013837;28;20034;-85
2021/11/29 12:33:12;;;;;;;11.13;10.63;;;9.90;69.70;;;;;;5032601;28;20022;-83
2021/11/29 12:35:52;;;;;;;11.18;10.68;;;9.90;69.40;;;;;;4992550;28;20107;-83
2021/11/29 12:38:21;;;;;;;11.73;11.13;;;9.80;69.50;;;;;;5001768;28;20022;-82
2021/11/29 12:41:06;;;;;;;11.60;11.10;;;9.80;69.70;;;;;;5016751;28;20056;-82
2021/11/29 12:43:34;;;;;;;11.98;11.38;;;9.70;69.90;;;;;;5017521;28;20041;-84
2021/11/29 12:46:20;;;;;;;11.98;11.30;;;9.80;69.90;;;;;;4999016;28;20049;-85
2021/11/29 12:48:47;;;;;;;11.55;11.00;;;9.80;69.60;;;;;;5030873;28;20040;-84
2021/11/29 12:51:13;;;;;;;12.00;11.40;;;9.70;69.60;;;;;;5032686;28;20220;-83
2021/11/29 12:53:40;;;;;;;11.68;11.18;;;9.70;69.70;;;;;;5016267;28;20029;-84